Time;durP1;ratioP1;P1;durP2;ratioP2;P2;SDS_P1;SDS_P2;PMS_P1;PMS_P2;Temp;Humidity;BMP_temperature;BMP_pressure;BME280_temperature;BME280_humidity;BME280_pressure;Samples;Min_cycle;Max_cycle;Signal;HPM_P1;HPM_P2
2021/05/01 00:00:28;;;;;;;10.98;6.85;;;10.00;99.90;;;;;;5040764;28;20366;-73
2021/05/01 00:02:54;;;;;;;13.70;7.72;;;10.10;99.90;;;;;;5040511;28;20331;-73
2021/05/01 00:05:19;;;;;;;11.20;4.57;;;10.10;99.90;;;;;;5033688;28;20035;-73
2021/05/01 00:07:45;;;;;;;6.57;3.95;;;10.10;99.90;;;;;;5027055;28;20388;-73
2021/05/01 00:10:11;;;;;;;7.75;4.40;;;10.10;99.90;;;;;;5036007;28;20048;-73
2021/05/01 00:12:40;;;;;;;8.70;5.15;;;10.10;99.90;;;;;;5026006;28;20040;-73
2021/05/01 00:15:08;;;;;;;7.80;4.93;;;10.10;99.90;;;;;;5035506;28;20464;-73
2021/05/01 00:17:33;;;;;;;9.32;5.85;;;10.20;99.90;;;;;;5037692;28;20028;-73
2021/05/01 00:19:59;;;;;;;17.63;7.78;;;10.20;99.90;;;;;;5040122;28;20502;-73
2021/05/01 00:22:25;;;;;;;9.68;6.30;;;10.10;99.90;;;;;;5039231;28;20586;-73
2021/05/01 00:24:50;;;;;;;9.70;6.70;;;10.10;99.90;;;;;;5036059;28;20037;-73
2021/05/01 00:27:16;;;;;;;11.50;7.22;;;10.10;99.90;;;;;;5037069;28;20032;-73
2021/05/01 00:29:41;;;;;;;12.05;7.63;;;10.10;99.90;;;;;;5034881;28;20033;-73
2021/05/01 00:32:07;;;;;;;13.70;10.30;;;10.10;99.90;;;;;;5037720;28;20102;-73
2021/05/01 00:34:33;;;;;;;15.60;10.88;;;10.10;99.90;;;;;;5036757;28;20052;-73
2021/05/01 00:36:58;;;;;;;16.35;13.30;;;10.00;99.90;;;;;;5019769;28;20120;-73
2021/05/01 00:39:24;;;;;;;17.60;11.65;;;10.00;99.90;;;;;;5038165;28;20043;-73
2021/05/01 00:41:50;;;;;;;12.52;10.52;;;10.00;99.90;;;;;;5018060;28;20055;-73
2021/05/01 00:44:17;;;;;;;15.73;10.80;;;10.00;99.90;;;;;;5033996;28;20613;-73
2021/05/01 00:46:43;;;;;;;15.73;11.15;;;10.10;99.90;;;;;;5035692;28;20414;-73
2021/05/01 00:49:09;;;;;;;18.35;13.15;;;10.10;99.90;;;;;;5031805;28;20159;-73
2021/05/01 00:51:34;;;;;;;17.17;11.85;;;10.10;99.90;;;;;;5020342;28;20078;-73
2021/05/01 00:54:01;;;;;;;15.60;11.13;;;10.10;99.90;;;;;;5041644;28;20068;-73
2021/05/01 00:56:27;;;;;;;14.38;10.10;;;10.10;99.90;;;;;;5042446;28;20024;-73
2021/05/01 00:58:54;;;;;;;16.08;11.55;;;10.10;99.90;;;;;;5043721;28;20124;-73
2021/05/01 01:01:20;;;;;;;14.73;12.30;;;10.10;99.90;;;;;;5022362;28;20044;-73
2021/05/01 01:03:47;;;;;;;12.63;11.05;;;10.10;99.90;;;;;;5041807;28;20433;-73
2021/05/01 01:06:14;;;;;;;15.63;10.70;;;10.10;99.90;;;;;;5044581;28;20021;-73
2021/05/01 01:08:41;;;;;;;15.80;11.48;;;10.20;99.90;;;;;;5045621;28;20048;-73
2021/05/01 01:11:07;;;;;;;14.57;11.70;;;10.20;99.90;;;;;;5044800;28;20033;-73
2021/05/01 01:13:33;;;;;;;16.15;11.80;;;10.20;99.90;;;;;;5046103;28;20033;-73
2021/05/01 01:15:58;;;;;;;27.17;21.17;;;10.30;99.90;;;;;;5043312;28;20040;-73
2021/05/01 01:18:24;;;;;;;28.92;22.90;;;10.30;99.90;;;;;;5045491;28;20024;-73
2021/05/01 01:20:50;;;;;;;30.42;22.40;;;10.30;99.90;;;;;;5046304;28;20028;-73
2021/05/01 01:23:16;;;;;;;21.17;17.23;;;10.30;99.90;;;;;;5044793;28;20577;-73
2021/05/01 01:25:42;;;;;;;26.65;17.90;;;10.30;99.90;;;;;;5028445;28;20036;-73
2021/05/01 01:28:07;;;;;;;26.30;20.50;;;10.30;99.90;;;;;;5040788;28;20037;-74
2021/05/01 01:30:35;;;;;;;23.98;17.90;;;10.30;99.90;;;;;;5036195;28;20506;-73
2021/05/01 01:33:04;;;;;;;27.77;21.08;;;10.20;99.90;;;;;;5034944;28;20083;-73
2021/05/01 01:35:30;;;;;;;29.45;21.45;;;10.30;99.90;;;;;;5020285;28;20501;-73
2021/05/01 01:37:56;;;;;;;29.88;21.10;;;10.20;99.90;;;;;;5037497;28;20033;-73
2021/05/01 01:40:23;;;;;;;23.45;18.52;;;10.30;99.90;;;;;;5038710;28;20038;-73
2021/05/01 01:42:49;;;;;;;20.55;15.70;;;10.30;99.90;;;;;;5031394;28;20033;-73
2021/05/01 01:45:18;;;;;;;21.92;12.80;;;10.30;99.90;;;;;;5017735;28;20500;-73
2021/05/01 01:47:43;;;;;;;13.00;11.20;;;10.30;99.90;;;;;;5034396;28;20094;-73
2021/05/01 01:50:12;;;;;;;17.00;11.57;;;10.20;99.90;;;;;;5015997;28;20433;-73
2021/05/01 01:52:38;;;;;;;15.23;12.57;;;10.20;99.90;;;;;;5039537;28;20103;-73
2021/05/01 01:55:05;;;;;;;12.23;10.07;;;10.20;99.90;;;;;;5037580;28;20041;-73
2021/05/01 01:57:31;;;;;;;13.75;12.10;;;10.20;99.90;;;;;;5031060;28;20037;-73
2021/05/01 01:59:57;;;;;;;14.40;11.57;;;10.20;99.90;;;;;;5038018;28;20025;-73
2021/05/01 02:02:23;;;;;;;12.68;11.23;;;10.20;99.90;;;;;;5031933;28;20030;-73
2021/05/01 02:04:48;;;;;;;15.35;11.80;;;10.20;99.90;;;;;;5035648;28;20040;-73
2021/05/01 02:07:14;;;;;;;13.82;12.02;;;10.20;99.90;;;;;;5037521;28;20037;-73
2021/05/01 02:09:40;;;;;;;12.65;11.32;;;10.20;99.90;;;;;;5033806;28;20398;-73
2021/05/01 02:12:06;;;;;;;19.35;12.65;;;10.30;99.90;;;;;;5034859;28;20040;-73
2021/05/01 02:14:31;;;;;;;17.88;14.80;;;10.10;99.90;;;;;;5039099;28;20041;-73
2021/05/01 02:16:57;;;;;;;19.73;14.95;;;10.10;99.90;;;;;;5033628;28;20039;-73
2021/05/01 02:19:23;;;;;;;17.95;13.10;;;10.10;99.90;;;;;;5036647;28;20036;-73
2021/05/01 02:21:48;;;;;;;17.92;12.90;;;10.10;99.90;;;;;;5030414;28;20482;-73
2021/05/01 02:24:14;;;;;;;15.40;12.50;;;10.10;99.90;;;;;;5036816;28;20039;-73
2021/05/01 02:26:40;;;;;;;18.10;13.13;;;10.10;99.90;;;;;;5035107;28;20368;-73
2021/05/01 02:29:06;;;;;;;15.98;13.05;;;10.10;99.90;;;;;;5033750;28;20045;-73
2021/05/01 02:31:31;;;;;;;17.20;14.00;;;10.10;99.90;;;;;;5019853;28;20041;-73
2021/05/01 02:33:57;;;;;;;20.05;14.65;;;10.00;99.90;;;;;;5032758;28;20067;-73
2021/05/01 02:36:23;;;;;;;17.13;12.77;;;10.00;99.90;;;;;;5033271;28;20745;-73
2021/05/01 02:38:48;;;;;;;15.73;13.05;;;10.00;99.90;;;;;;5032137;28;20152;-73
2021/05/01 02:41:14;;;;;;;18.00;14.07;;;10.10;99.90;;;;;;5027612;28;20455;-73
2021/05/01 02:43:40;;;;;;;17.55;13.35;;;10.00;99.90;;;;;;5034278;28;20127;-73
2021/05/01 02:46:06;;;;;;;17.48;14.77;;;10.00;99.90;;;;;;5033502;28;20053;-73
2021/05/01 02:48:32;;;;;;;15.68;13.18;;;10.10;99.90;;;;;;5030505;28;20029;-73
2021/05/01 02:50:59;;;;;;;15.27;12.88;;;10.10;99.90;;;;;;5034293;28;20522;-73
2021/05/01 02:53:25;;;;;;;16.15;13.13;;;10.10;99.90;;;;;;5036406;28;20020;-73
2021/05/01 02:55:50;;;;;;;17.40;13.77;;;10.20;99.90;;;;;;5033432;28;20384;-73
2021/05/01 02:58:16;;;;;;;18.25;15.27;;;10.20;99.90;;;;;;5034270;28;20473;-73
2021/05/01 03:00:42;;;;;;;16.27;13.82;;;10.20;99.90;;;;;;5016524;28;20031;-73
2021/05/01 03:03:07;;;;;;;15.25;12.02;;;10.20;99.90;;;;;;5038035;28;20437;-73
2021/05/01 03:05:33;;;;;;;12.52;10.05;;;10.20;99.90;;;;;;5031130;28;20025;-73
2021/05/01 03:07:59;;;;;;;12.23;6.25;;;10.20;99.90;;;;;;5035067;28;20474;-73
2021/05/01 03:10:26;;;;;;;12.18;6.45;;;10.00;99.90;;;;;;5031345;28;20362;-73
2021/05/01 03:12:55;;;;;;;9.20;6.25;;;10.00;99.90;;;;;;5035963;28;20036;-73
2021/05/01 03:15:22;;;;;;;9.20;5.28;;;10.00;99.90;;;;;;5032776;28;20029;-73
2021/05/01 03:17:48;;;;;;;6.07;4.32;;;10.00;99.90;;;;;;5033604;28;20036;-73
2021/05/01 03:20:14;;;;;;;9.27;6.72;;;10.00;99.90;;;;;;5018995;28;20067;-73
2021/05/01 03:22:41;;;;;;;8.20;6.28;;;10.00;99.90;;;;;;5031743;28;20490;-73
2021/05/01 03:25:08;;;;;;;7.80;5.70;;;10.00;99.90;;;;;;5036993;28;20067;-73
2021/05/01 03:27:35;;;;;;;12.65;8.57;;;10.00;99.90;;;;;;5033781;28;20107;-73
2021/05/01 03:30:00;;;;;;;11.75;7.80;;;10.00;99.90;;;;;;5030017;28;20041;-73
2021/05/01 03:32:26;;;;;;;8.60;7.00;;;9.90;99.90;;;;;;5033191;28;20041;-73
2021/05/01 03:34:52;;;;;;;13.80;9.52;;;10.00;99.90;;;;;;5029820;28;20312;-73
2021/05/01 03:37:17;;;;;;;9.80;7.88;;;10.00;99.90;;;;;;5036589;28;20406;-73
2021/05/01 03:39:43;;;;;;;11.35;7.90;;;10.00;99.90;;;;;;5032969;28;20475;-73
2021/05/01 03:42:09;;;;;;;11.13;8.25;;;10.00;99.90;;;;;;5016586;28;20037;-73
2021/05/01 03:44:35;;;;;;;12.75;9.05;;;10.10;99.90;;;;;;5032607;28;20439;-73
2021/05/01 03:47:00;;;;;;;13.80;9.77;;;10.00;99.90;;;;;;5014224;28;20048;-73
2021/05/01 03:49:26;;;;;;;10.07;8.40;;;10.00;99.90;;;;;;5029571;28;20044;-73
2021/05/01 03:51:52;;;;;;;12.52;9.02;;;10.00;99.90;;;;;;5035809;28;20045;-73
2021/05/01 03:54:18;;;;;;;11.93;10.18;;;10.00;99.90;;;;;;5031490;28;20045;-73
2021/05/01 03:56:43;;;;;;;13.88;9.77;;;10.00;99.90;;;;;;5031054;28;20037;-73
2021/05/01 03:59:09;;;;;;;10.00;8.43;;;10.00;99.90;;;;;;5015820;28;20029;-73
2021/05/01 04:01:35;;;;;;;10.85;8.55;;;10.00;99.90;;;;;;5019777;28;20041;-73
2021/05/01 04:04:00;;;;;;;11.80;9.45;;;10.00;99.90;;;;;;5028875;28;20030;-73
2021/05/01 04:06:26;;;;;;;12.70;8.50;;;10.00;99.90;;;;;;5032318;28;20052;-73
2021/05/01 04:08:52;;;;;;;13.23;9.60;;;10.00;99.90;;;;;;5030180;28;20151;-73
2021/05/01 04:11:17;;;;;;;18.50;10.05;;;9.90;99.90;;;;;;5033734;28;20076;-73
2021/05/01 04:13:49;;;;;;;12.68;9.10;;;9.90;99.90;;;;;;5033212;28;20061;-73
2021/05/01 04:16:15;;;;;;;13.05;9.35;;;9.90;99.90;;;;;;5014751;28;20069;-73
2021/05/01 04:18:42;;;;;;;11.82;8.20;;;9.90;99.90;;;;;;5032286;28;20048;-73
2021/05/01 04:21:08;;;;;;;11.57;8.60;;;9.90;99.90;;;;;;5023095;28;20045;-73
2021/05/01 04:23:34;;;;;;;12.43;10.20;;;9.90;99.90;;;;;;5027335;28;20051;-73
2021/05/01 04:26:00;;;;;;;16.05;11.20;;;9.90;99.90;;;;;;5032165;28;20462;-73
2021/05/01 04:28:26;;;;;;;11.35;9.80;;;9.90;99.90;;;;;;5032841;28;20032;-73
2021/05/01 04:30:52;;;;;;;14.88;10.02;;;9.90;99.90;;;;;;5025874;28;20110;-73
2021/05/01 04:33:18;;;;;;;15.43;10.60;;;10.00;99.90;;;;;;5026648;28;20406;-73
2021/05/01 04:35:43;;;;;;;15.25;10.73;;;10.00;99.90;;;;;;5034350;28;20064;-73
2021/05/01 04:38:09;;;;;;;13.45;10.77;;;10.00;99.90;;;;;;5025137;28;20091;-73
2021/05/01 04:40:35;;;;;;;14.43;11.10;;;10.00;99.90;;;;;;5035686;28;20052;-73
2021/05/01 04:43:03;;;;;;;15.00;11.77;;;10.10;99.90;;;;;;5028918;28;20390;-73
2021/05/01 04:45:29;;;;;;;13.73;11.15;;;10.10;99.90;;;;;;5034449;28;20056;-73
2021/05/01 04:47:55;;;;;;;14.18;12.55;;;10.10;99.90;;;;;;5036789;28;20037;-73
2021/05/01 04:50:21;;;;;;;18.25;13.20;;;10.10;99.90;;;;;;5030335;28;20037;-73
2021/05/01 04:52:46;;;;;;;15.27;12.82;;;10.10;99.90;;;;;;5031111;28;20045;-73
2021/05/01 04:55:15;;;;;;;17.60;13.73;;;10.10;99.90;;;;;;5036938;28;20041;-73
2021/05/01 04:57:45;;;;;;;16.20;12.75;;;10.10;99.90;;;;;;5040249;28;20154;-73
2021/05/01 05:00:13;;;;;;;16.30;13.90;;;10.00;99.90;;;;;;5037455;28;20064;-73
2021/05/01 05:02:39;;;;;;;16.95;13.25;;;10.10;99.90;;;;;;5035551;28;20037;-73
2021/05/01 05:05:06;;;;;;;18.40;15.32;;;10.00;99.90;;;;;;5035725;28;20374;-73
2021/05/01 05:07:32;;;;;;;19.98;14.90;;;10.00;99.90;;;;;;5039119;28;20486;-73
2021/05/01 05:09:58;;;;;;;19.48;15.38;;;10.00;99.90;;;;;;5033251;28;20045;-73
2021/05/01 05:12:23;;;;;;;23.17;16.45;;;10.00;99.90;;;;;;5024908;28;20052;-73
2021/05/01 05:14:49;;;;;;;20.35;17.80;;;10.00;99.90;;;;;;5038164;28;20041;-73
2021/05/01 05:17:15;;;;;;;18.55;16.58;;;10.00;99.90;;;;;;5037628;28;20033;-73
2021/05/01 05:19:40;;;;;;;21.40;17.00;;;10.10;99.90;;;;;;5036813;28;20060;-73
2021/05/01 05:22:06;;;;;;;21.02;16.48;;;10.10;99.90;;;;;;5033673;28;20485;-73
2021/05/01 05:24:32;;;;;;;20.23;16.42;;;10.10;99.90;;;;;;5033746;28;20159;-73
2021/05/01 05:26:58;;;;;;;22.67;17.65;;;10.10;99.90;;;;;;5037932;28;20450;-73
2021/05/01 05:29:23;;;;;;;23.95;19.92;;;10.00;99.90;;;;;;5033390;28;20040;-73
2021/05/01 05:31:49;;;;;;;24.42;19.55;;;10.00;99.90;;;;;;5037001;28;20180;-73
2021/05/01 05:34:14;;;;;;;23.33;16.63;;;10.10;99.90;;;;;;5033716;28;20426;-73
2021/05/01 05:36:40;;;;;;;27.85;20.40;;;10.00;99.90;;;;;;5035669;28;20040;-73
2021/05/01 05:39:07;;;;;;;23.48;19.20;;;9.90;99.90;;;;;;5035483;28;20387;-73
2021/05/01 05:41:33;;;;;;;24.20;18.15;;;10.00;99.90;;;;;;5038743;28;20517;-73
2021/05/01 05:43:59;;;;;;;25.08;18.33;;;10.00;99.90;;;;;;5034155;28;20037;-73
2021/05/01 05:46:26;;;;;;;26.48;21.40;;;9.90;99.90;;;;;;5040582;28;20049;-73
2021/05/01 05:48:52;;;;;;;27.42;18.83;;;9.90;99.90;;;;;;5040894;28;20546;-73
2021/05/01 05:51:18;;;;;;;29.50;20.10;;;10.00;99.90;;;;;;5019643;28;20244;-73
2021/05/01 05:53:43;;;;;;;26.20;18.38;;;9.90;99.90;;;;;;5031467;28;20033;-73
2021/05/01 05:56:09;;;;;;;26.27;20.50;;;9.80;99.90;;;;;;5034529;28;20041;-73
2021/05/01 05:58:35;;;;;;;20.35;17.30;;;9.80;99.90;;;;;;5039708;28;20582;-73
2021/05/01 06:01:01;;;;;;;22.20;16.70;;;9.90;99.90;;;;;;5032123;28;20057;-73
2021/05/01 06:03:28;;;;;;;21.25;16.15;;;9.90;99.90;;;;;;5038168;28;20451;-73
2021/05/01 06:06:05;;;;;;;21.52;17.63;;;9.90;99.90;;;;;;5036734;28;20040;-73
2021/05/01 06:08:32;;;;;;;22.55;16.85;;;9.90;99.90;;;;;;5040663;28;20112;-74
2021/05/01 06:11:01;;;;;;;22.85;17.98;;;9.90;99.90;;;;;;5035124;28;20036;-73
2021/05/01 06:13:29;;;;;;;25.02;18.08;;;10.00;99.90;;;;;;5031888;28;20532;-73
2021/05/01 06:15:57;;;;;;;25.88;20.35;;;10.10;99.90;;;;;;5037374;28;20369;-73
2021/05/01 06:18:24;;;;;;;22.95;19.48;;;10.10;99.90;;;;;;5034182;28;20029;-74
2021/05/01 06:20:50;;;;;;;23.42;18.52;;;10.20;99.90;;;;;;5026456;28;20036;-73
2021/05/01 06:23:17;;;;;;;23.98;19.75;;;10.20;99.90;;;;;;5029870;28;20386;-73
2021/05/01 06:25:44;;;;;;;25.10;19.70;;;10.40;99.90;;;;;;5033133;28;20032;-73
2021/05/01 06:28:10;;;;;;;30.40;23.13;;;10.30;99.90;;;;;;5035314;28;20604;-73
2021/05/01 06:30:39;;;;;;;25.42;19.55;;;10.30;99.90;;;;;;5033381;28;20036;-74
2021/05/01 06:33:12;;;;;;;18.75;16.23;;;10.40;99.90;;;;;;5035743;28;20104;-73
2021/05/01 06:35:40;;;;;;;23.83;20.17;;;10.40;99.90;;;;;;5031175;28;20052;-73
2021/05/01 06:38:06;;;;;;;23.52;19.05;;;10.40;99.90;;;;;;5030917;28;20688;-73
2021/05/01 06:40:40;;;;;;;24.63;18.35;;;10.40;99.90;;;;;;5021168;28;20059;-74
2021/05/01 06:43:31;;;;;;;22.50;17.52;;;10.40;99.90;;;;;;5035589;28;20028;-73
2021/05/01 06:45:59;;;;;;;21.65;17.23;;;10.50;99.90;;;;;;5033501;28;20053;-73
2021/05/01 06:48:26;;;;;;;22.35;16.80;;;10.50;99.90;;;;;;5031152;28;20112;-73
2021/05/01 06:50:57;;;;;;;20.20;15.13;;;10.50;99.90;;;;;;5029259;28;20025;-73
2021/05/01 06:53:29;;;;;;;19.38;14.98;;;10.40;99.90;;;;;;5035580;28;20115;-73
2021/05/01 06:56:05;;;;;;;18.27;15.00;;;10.40;99.90;;;;;;5030088;28;20144;-73
2021/05/01 06:58:33;;;;;;;20.35;15.00;;;10.40;99.90;;;;;;5032260;28;20029;-73
2021/05/01 07:01:03;;;;;;;20.23;15.32;;;10.40;99.90;;;;;;5030337;28;20060;-73
2021/05/01 07:03:33;;;;;;;18.25;13.38;;;10.50;99.90;;;;;;5035452;28;20475;-73
2021/05/01 07:06:01;;;;;;;27.77;21.77;;;10.60;99.90;;;;;;5039454;28;20677;-73
2021/05/01 07:08:28;;;;;;;23.48;18.30;;;10.40;99.90;;;;;;5038383;28;20036;-73
2021/05/01 07:10:54;;;;;;;18.30;14.80;;;10.50;99.90;;;;;;5037528;28;20033;-73
2021/05/01 07:13:20;;;;;;;19.75;16.65;;;10.50;99.90;;;;;;5036242;28;20032;-73
2021/05/01 07:15:46;;;;;;;20.08;15.15;;;10.40;99.90;;;;;;5024017;28;20035;-73
2021/05/01 07:18:14;;;;;;;17.83;12.52;;;10.50;99.90;;;;;;5033720;28;20075;-73
2021/05/01 07:20:40;;;;;;;15.40;12.50;;;10.40;99.90;;;;;;5031915;28;20442;-74
2021/05/01 07:23:05;;;;;;;21.40;16.48;;;10.40;99.90;;;;;;5029465;28;20124;-73
2021/05/01 07:25:32;;;;;;;19.73;16.20;;;10.40;99.90;;;;;;5029893;28;20060;-73
2021/05/01 07:28:12;;;;;;;20.58;16.75;;;10.40;99.90;;;;;;5031379;28;20432;-73
2021/05/01 07:30:42;;;;;;;22.17;14.52;;;10.30;99.90;;;;;;5040229;28;20581;-73
2021/05/01 07:33:17;;;;;;;20.05;14.65;;;10.30;99.90;;;;;;5036665;28;20040;-73
2021/05/01 07:35:47;;;;;;;23.42;17.10;;;10.30;99.90;;;;;;5034558;28;20025;-73
2021/05/01 07:38:14;;;;;;;22.02;16.27;;;10.30;99.90;;;;;;5034227;28;20516;-73
2021/05/01 07:40:40;;;;;;;19.45;15.13;;;10.10;99.90;;;;;;5038416;28;20474;-73
2021/05/01 07:43:07;;;;;;;16.83;13.15;;;10.20;99.90;;;;;;5033077;28;20303;-74
2021/05/01 07:45:36;;;;;;;19.67;14.55;;;10.20;99.90;;;;;;5016966;28;20627;-73
2021/05/01 07:48:04;;;;;;;16.73;13.48;;;10.30;99.90;;;;;;5031914;28;20080;-73
2021/05/01 07:50:30;;;;;;;18.80;14.27;;;10.30;99.90;;;;;;5034221;28;20025;-73
2021/05/01 07:52:56;;;;;;;15.70;12.10;;;10.40;99.90;;;;;;5036321;28;20039;-73
2021/05/01 07:55:22;;;;;;;17.73;13.23;;;10.30;99.90;;;;;;5038979;28;20037;-74
2021/05/01 07:57:49;;;;;;;22.00;12.70;;;10.30;99.90;;;;;;5038208;28;20033;-74
2021/05/01 08:00:16;;;;;;;17.52;14.20;;;10.30;99.90;;;;;;5036503;28;20168;-75
2021/05/01 08:02:42;;;;;;;15.65;11.68;;;10.30;99.90;;;;;;5037281;28;20116;-73
2021/05/01 08:05:09;;;;;;;16.88;12.70;;;10.20;99.90;;;;;;5030197;28;20489;-73
2021/05/01 08:07:35;;;;;;;16.63;12.00;;;10.20;99.90;;;;;;5029128;28;20079;-73
2021/05/01 08:10:00;;;;;;;15.70;13.52;;;10.10;99.90;;;;;;5031021;28;20025;-73
2021/05/01 08:12:26;;;;;;;18.23;13.63;;;10.20;99.90;;;;;;5033457;28;20485;-73
2021/05/01 08:14:52;;;;;;;16.33;11.50;;;10.20;99.90;;;;;;5032311;28;20374;-73
2021/05/01 08:17:18;;;;;;;16.63;13.15;;;10.30;99.90;;;;;;5037088;28;20026;-73
2021/05/01 08:19:43;;;;;;;13.52;11.35;;;10.20;99.90;;;;;;5034553;28;20529;-73
2021/05/01 08:22:09;;;;;;;15.48;12.52;;;10.20;99.90;;;;;;5031933;28;20040;-73
2021/05/01 08:24:34;;;;;;;15.43;11.73;;;10.20;99.90;;;;;;5034313;28;20033;-73
2021/05/01 08:27:00;;;;;;;15.38;11.63;;;10.20;99.90;;;;;;5038174;28;20537;-73
2021/05/01 08:29:26;;;;;;;18.90;14.50;;;10.10;99.90;;;;;;5039734;28;20033;-73
2021/05/01 08:31:52;;;;;;;14.80;11.57;;;10.10;99.90;;;;;;5038669;28;20049;-73
2021/05/01 08:34:17;;;;;;;15.93;12.23;;;10.10;99.90;;;;;;5035871;28;20068;-73
2021/05/01 08:36:43;;;;;;;19.85;13.57;;;10.20;99.90;;;;;;5035308;28;20026;-73
2021/05/01 08:39:09;;;;;;;14.35;10.55;;;10.10;99.90;;;;;;5033319;28;20044;-73
2021/05/01 08:41:34;;;;;;;13.85;10.77;;;10.10;99.90;;;;;;5019523;28;20037;-73
2021/05/01 08:44:09;;;;;;;17.05;12.80;;;10.10;99.90;;;;;;5043556;28;20028;-74
2021/05/01 08:46:36;;;;;;;17.60;13.82;;;10.00;99.90;;;;;;5040906;28;20050;-73
2021/05/01 08:49:07;;;;;;;14.00;10.30;;;10.10;99.90;;;;;;5038016;28;20030;-73
2021/05/01 08:51:33;;;;;;;22.23;10.73;;;10.00;99.90;;;;;;5036116;28;20032;-73
2021/05/01 08:53:59;;;;;;;9.70;7.80;;;10.10;99.90;;;;;;5038324;28;20542;-73
2021/05/01 08:56:24;;;;;;;14.77;11.15;;;10.10;99.90;;;;;;5035771;28;20499;-73
2021/05/01 08:59:02;;;;;;;29.48;21.30;;;10.00;99.90;;;;;;5038498;28;20025;-73
2021/05/01 09:01:27;;;;;;;12.02;8.57;;;10.00;99.90;;;;;;5038172;28;20380;-73
2021/05/01 09:03:54;;;;;;;13.75;9.95;;;10.10;99.90;;;;;;5040135;28;20035;-73
2021/05/01 09:06:22;;;;;;;10.93;7.95;;;10.10;99.90;;;;;;5037738;28;20032;-73
2021/05/01 09:09:06;;;;;;;7.53;5.10;;;10.10;99.90;;;;;;5037851;28;20040;-73
2021/05/01 09:11:39;;;;;;;9.75;6.07;;;10.10;99.90;;;;;;5034999;28;20083;-73
2021/05/01 09:14:25;;;;;;;9.95;6.70;;;10.10;99.90;;;;;;5035388;28;20028;-73
2021/05/01 09:17:05;;;;;;;10.68;6.97;;;10.10;99.90;;;;;;5037871;28;20038;-73
2021/05/01 09:19:39;;;;;;;8.55;6.30;;;10.10;99.90;;;;;;5039740;28;20021;-73
2021/05/01 09:22:08;;;;;;;8.75;4.63;;;10.20;99.90;;;;;;5021993;28;20839;-73
2021/05/01 09:24:35;;;;;;;7.90;5.47;;;10.30;99.90;;;;;;5033595;28;20029;-73
2021/05/01 09:27:02;;;;;;;7.90;5.47;;;10.30;99.90;;;;;;5029265;28;20688;-73
2021/05/01 09:29:32;;;;;;;9.75;6.47;;;10.20;99.90;;;;;;5031135;28;20156;-73
2021/05/01 09:32:00;;;;;;;10.00;6.00;;;10.30;99.90;;;;;;5033715;28;20040;-73
2021/05/01 09:34:47;;;;;;;8.23;4.80;;;10.30;99.90;;;;;;5034224;28;20025;-73
2021/05/01 09:37:16;;;;;;;6.13;3.90;;;10.20;99.90;;;;;;5037180;28;20036;-72
2021/05/01 09:39:53;;;;;;;7.15;4.68;;;10.30;99.90;;;;;;5037847;28;20036;-73
2021/05/01 09:42:20;;;;;;;10.15;4.75;;;10.20;99.90;;;;;;5036010;28;20036;-73
2021/05/01 09:44:47;;;;;;;5.30;2.30;;;10.20;99.90;;;;;;5031737;28;20046;-73
2021/05/01 09:47:16;;;;;;;6.47;3.35;;;10.20;99.90;;;;;;5032926;28;20042;-73
2021/05/01 09:49:45;;;;;;;7.28;1.70;;;10.30;99.90;;;;;;5026056;28;20193;-73
2021/05/01 09:52:12;;;;;;;3.45;1.13;;;10.30;99.90;;;;;;5037800;28;20041;-73
2021/05/01 09:54:40;;;;;;;2.17;0.93;;;10.30;99.90;;;;;;5033168;28;20025;-73
2021/05/01 09:57:14;;;;;;;1.45;0.70;;;10.20;99.90;;;;;;5041802;28;20029;-73
2021/05/01 09:59:39;;;;;;;3.33;1.50;;;10.30;99.90;;;;;;5033323;28;20100;-73
2021/05/01 10:02:07;;;;;;;3.35;0.70;;;10.20;99.90;;;;;;5034632;28;20043;-73
2021/05/01 10:04:32;;;;;;;3.15;1.17;;;10.30;99.90;;;;;;5012076;28;20029;-73
2021/05/01 10:07:01;;;;;;;2.53;0.80;;;10.30;99.90;;;;;;5033918;28;20044;-73
2021/05/01 10:09:30;;;;;;;2.17;0.50;;;10.40;99.90;;;;;;5037119;28;20016;-73
2021/05/01 10:12:03;;;;;;;2.38;0.60;;;10.30;99.90;;;;;;5036007;28;20090;-73
2021/05/01 10:14:48;;;;;;;4.38;0.60;;;10.40;99.90;;;;;;5034953;28;20033;-73
2021/05/01 10:17:22;;;;;;;4.45;2.08;;;10.30;99.90;;;;;;5033974;28;20044;-72
2021/05/01 10:20:00;;;;;;;10.85;5.13;;;10.40;99.90;;;;;;5038576;28;20040;-73
2021/05/01 10:22:30;;;;;;;7.03;2.15;;;10.30;99.90;;;;;;5016002;28;20123;-73
2021/05/01 10:25:08;;;;;;;4.28;1.30;;;10.30;99.90;;;;;;5034172;28;20518;-72
2021/05/01 10:28:00;;;;;;;3.58;0.90;;;10.30;99.90;;;;;;5036659;28;20044;-73
2021/05/01 10:30:32;;;;;;;;;;;10.10;99.90;;;;;;5029760;28;20333;-72
2021/05/01 10:33:16;;;;;;;4.10;1.30;;;10.10;99.90;;;;;;5034193;28;19944;-73
2021/05/01 10:35:48;;;;;;;4.25;1.42;;;10.10;99.90;;;;;;5029194;28;20043;-73
2021/05/01 10:38:17;;;;;;;8.00;1.20;;;10.20;99.90;;;;;;5033789;28;20063;-73
2021/05/01 10:40:48;;;;;;;3.78;1.13;;;10.10;99.90;;;;;;5031316;28;20025;-73
2021/05/01 10:43:20;;;;;;;4.15;1.58;;;10.00;99.90;;;;;;5030858;28;20243;-73
2021/05/01 10:45:48;;;;;;;5.82;2.88;;;9.90;99.90;;;;;;5035661;28;20050;-73
2021/05/01 10:48:14;;;;;;;3.72;1.77;;;10.00;99.90;;;;;;5033447;28;20065;-73
2021/05/01 10:50:40;;;;;;;6.00;1.80;;;10.00;99.90;;;;;;5035528;28;20056;-73
2021/05/01 10:53:15;;;;;;;5.07;1.77;;;10.00;99.90;;;;;;5038154;28;20037;-73
2021/05/01 10:55:46;;;;;;;14.88;2.80;;;10.00;99.90;;;;;;5017438;28;20090;-73
2021/05/01 10:58:27;;;;;;;5.03;2.33;;;9.90;99.90;;;;;;5033979;28;20371;-73
2021/05/01 11:00:52;;;;;;;5.63;2.28;;;9.90;99.90;;;;;;5029051;28;20490;-73
2021/05/01 11:03:21;;;;;;;5.22;2.20;;;9.90;99.90;;;;;;5031404;28;20033;-73
2021/05/01 11:05:48;;;;;;;5.72;2.75;;;9.90;99.90;;;;;;5031730;28;20409;-73
2021/05/01 11:08:26;;;;;;;6.82;3.97;;;10.00;99.90;;;;;;5031687;28;20040;-73
2021/05/01 11:10:54;;;;;;;4.95;2.95;;;10.00;99.90;;;;;;5034036;28;20029;-73
2021/05/01 11:13:28;;;;;;;4.72;2.20;;;9.90;99.90;;;;;;5034793;28;20087;-73
2021/05/01 11:16:01;;;;;;;6.95;3.50;;;9.90;99.90;;;;;;5036624;28;20061;-73
2021/05/01 11:18:28;;;;;;;8.35;5.10;;;10.00;99.90;;;;;;5029519;28;20030;-73
2021/05/01 11:21:00;;;;;;;8.73;4.70;;;10.20;99.90;;;;;;5035192;28;20033;-73
2021/05/01 11:23:30;;;;;;;;;;;10.30;99.90;;;;;;5012289;28;20029;-73
2021/05/01 11:25:59;;;;;;;9.70;6.32;;;10.40;99.90;;;;;;5033204;28;19920;-73
2021/05/01 11:28:26;;;;;;;8.07;2.95;;;10.30;99.90;;;;;;5029564;28;20025;-73
2021/05/01 11:30:54;;;;;;;7.57;4.15;;;10.30;99.90;;;;;;5030111;28;20143;-73
2021/05/01 11:33:26;;;;;;;6.97;4.20;;;10.30;99.90;;;;;;5029572;28;20079;-73
2021/05/01 11:35:52;;;;;;;6.57;3.95;;;10.30;99.90;;;;;;5031778;28;20025;-73
2021/05/01 11:38:33;;;;;;;7.60;4.60;;;10.30;99.90;;;;;;5032597;28;20433;-73
2021/05/01 11:40:59;;;;;;;8.55;3.80;;;10.40;99.90;;;;;;5032886;28;20045;-73
2021/05/01 11:43:26;;;;;;;6.32;3.33;;;10.40;99.90;;;;;;5035847;28;20025;-73
2021/05/01 11:46:34;;;;;;;9.63;4.13;;;10.40;99.90;;;;;;5033408;28;20056;-73
2021/05/01 11:49:06;;;;;;;6.68;3.83;;;10.50;99.90;;;;;;5023994;28;20045;-73
2021/05/01 11:51:45;;;;;;;7.40;4.85;;;10.40;99.90;;;;;;5034335;28;20064;-73
2021/05/01 11:54:22;;;;;;;7.10;3.33;;;10.30;99.90;;;;;;5033844;28;20373;-73
2021/05/01 11:57:01;;;;;;;8.75;5.38;;;10.30;99.90;;;;;;5032516;28;20045;-73
2021/05/01 11:59:28;;;;;;;5.32;3.45;;;10.30;99.90;;;;;;5034966;28;20034;-73
2021/05/01 12:02:02;;;;;;;5.22;3.25;;;10.30;99.90;;;;;;5031716;28;20040;-73
2021/05/01 12:05:01;;;;;;;5.00;3.13;;;10.30;99.90;;;;;;5031108;28;20878;-73
2021/05/01 12:07:46;;;;;;;5.45;3.10;;;10.30;99.90;;;;;;5020203;28;20499;-73
2021/05/01 12:10:16;;;;;;;5.82;2.60;;;10.30;99.90;;;;;;5036469;28;20427;-73
2021/05/01 12:13:08;;;;;;;4.63;2.10;;;10.40;99.90;;;;;;5031509;28;20029;-74
2021/05/01 12:15:36;;;;;;;4.22;2.42;;;10.20;99.90;;;;;;5034280;28;20029;-73
2021/05/01 12:18:04;;;;;;;5.60;2.47;;;10.20;99.90;;;;;;5030313;28;20041;-74
2021/05/01 12:20:31;;;;;;;4.10;2.53;;;10.10;99.90;;;;;;5035157;28;20569;-74
2021/05/01 12:23:13;;;;;;;4.50;2.65;;;10.30;99.90;;;;;;5030930;28;20041;-74
2021/05/01 12:25:46;;;;;;;;;;;10.30;99.90;;;;;;5034225;28;20029;-74
2021/05/01 12:28:12;;;;;;;4.20;2.17;;;10.20;99.90;;;;;;5033640;28;20483;-74
2021/05/01 12:30:46;;;;;;;6.07;2.22;;;10.30;99.90;;;;;;5033048;28;20068;-73
2021/05/01 12:33:27;;;;;;;9.60;2.58;;;10.30;99.90;;;;;;5010597;28;20034;-74
2021/05/01 12:36:08;;;;;;;5.57;2.10;;;10.30;99.90;;;;;;5035152;28;20033;-73
2021/05/01 12:38:40;;;;;;;4.65;2.20;;;10.30;99.90;;;;;;5032566;28;20497;-74
2021/05/01 12:41:06;;;;;;;5.32;2.25;;;10.30;99.90;;;;;;5031971;28;20346;-73